Fort Steilacoom, Washington
Current Conditions -  °F | °C
As of 7:33 AM on Saturday 25 Oct 2014 (Local Time) from KGRF Reporting Station
Drizzle Drizzle  
Wind Chill: 50°   Ceiling: 6500
Heat Index: 50°   Visibility: 10mi
Dew Point: 48°   Wind: 8mph
Humidity: 94%   Direction: 160°SSE
Pressure: 29.56"   Gusts: NA
Location:  47.1451°N, 122.578°W
Report Text: KGRF 251433Z AUTO 16007KT 10SM DZ SCT005 BKN065 OVC100 10/09 A2956 RMK AO2
Loading
Personal Weather Stations






























Interactive Weather Map
Tropical Storm Tracking
New forecast layout! Learn more

10-Day Weather Forecast

Advertisements
Track Severe Weather on mobile